Time;durP1;ratioP1;P1;durP2;ratioP2;P2;SDS_P1;SDS_P2;PMS_P1;PMS_P2;Temp;Humidity;BMP_temperature;BMP_pressure;BME280_temperature;BME280_humidity;BME280_pressure;Samples;Min_cycle;Max_cycle;Signal;HPM_P1;HPM_P2
2023/03/08 05:30:28;;;;;;;;;4.25;4.25;;;;;7.94;82.23;98739.44;5116686;27;45593;-71
2023/03/08 05:32:53;;;;;;;;;6.00;6.00;;;;;7.87;82.87;98733.66;5117295;27;45261;-70
2023/03/08 05:35:18;;;;;;;;;3.75;2.50;;;;;7.90;82.53;98716.59;5118197;27;45397;-71
2023/03/08 05:37:44;;;;;;;;;3.00;3.00;;;;;7.91;82.79;98734.31;5118300;27;45415;-71
2023/03/08 05:40:10;;;;;;;;;3.75;3.75;;;;;7.91;83.10;98729.81;5117558;27;48090;-69
2023/03/08 05:42:35;;;;;;;;;3.00;3.00;;;;;8.00;82.72;98728.34;5099262;27;47427;-70
2023/03/08 05:45:01;;;;;;;;;8.00;3.25;;;;;8.07;83.59;98736.81;5099092;27;46353;-70
2023/03/08 05:47:28;;;;;;;;;2.25;2.25;;;;;8.14;83.46;98733.63;5117909;27;45254;-71
2023/03/08 05:49:53;;;;;;;;;2.50;2.50;;;;;8.15;83.32;98735.34;5099262;27;45389;-70
2023/03/08 05:52:18;;;;;;;;;5.75;3.00;;;;;8.21;83.23;98720.72;5117918;27;45576;-70
2023/03/08 05:54:44;;;;;;;;;3.00;3.00;;;;;8.32;82.77;98723.53;5117512;27;45933;-71
2023/03/08 05:57:09;;;;;;;;;2.00;2.00;;;;;8.35;82.90;98731.31;5117716;27;45396;-71
2023/03/08 05:59:34;;;;;;;;;5.00;3.00;;;;;8.36;83.71;98719.69;5100381;27;50514;-71
2023/03/08 06:02:00;;;;;;;;;3.25;3.00;;;;;8.31;84.69;98709.34;5116524;27;45705;-73
2023/03/08 06:04:25;;;;;;;;;2.75;2.75;;;;;8.31;84.31;98697.78;5117192;27;46197;-71
2023/03/08 06:06:52;;;;;;;;;6.25;2.25;;;;;8.47;84.39;98714.47;5098997;27;46109;-71
2023/03/08 06:09:17;;;;;;;;;3.50;3.50;;;;;8.48;84.54;98716.16;5112358;27;46245;-74
2023/03/08 06:11:43;;;;;;;;;2.25;2.25;;;;;8.54;84.43;98714.88;5096640;27;45390;-73
2023/03/08 06:14:09;;;;;;;;;3.75;3.75;;;;;8.58;85.00;98689.69;5078094;27;46338;-72
2023/03/08 06:16:35;;;;;;;;;3.00;3.00;;;;;8.65;84.70;98723.88;5096526;27;45359;-75
2023/03/08 06:19:02;;;;;;;;;5.50;3.00;;;;;8.68;85.67;98726.28;5096676;27;45370;-75
2023/03/08 06:21:27;;;;;;;;;3.00;3.00;;;;;8.66;86.23;98736.25;5096480;27;45430;-73
2023/03/08 06:23:53;;;;;;;;;3.75;3.75;;;;;8.58;86.28;98705.72;5095738;27;46829;-76
2023/03/08 06:26:18;;;;;;;;;6.00;4.00;;;;;8.62;87.32;98734.75;5096507;27;45426;-74
2023/03/08 06:28:44;;;;;;;;;3.00;3.00;;;;;8.77;87.17;98739.97;5096517;27;45457;-73
2023/03/08 06:31:13;;;;;;;;;2.50;2.50;;;;;8.61;87.78;98697.47;5101753;27;45389;-78
2023/03/08 06:33:38;;;;;;;;;2.50;2.50;;;;;8.83;87.81;98742.22;5112701;27;46317;-79
2023/03/08 06:36:11;;;;;;;;;4.00;2.25;;;;;8.65;88.39;98693.63;5109598;27;45463;-78
2023/03/08 06:38:38;;;;;;;;;4.75;3.25;;;;;9.02;88.60;98748.81;5138061;27;45474;-74
2023/03/08 06:41:06;;;;;;;;;3.75;3.75;;;;;8.96;88.56;98717.19;5137942;27;45394;-74
2023/03/08 06:43:31;;;;;;;;;3.00;3.00;;;;;9.13;88.59;98731.16;5118810;27;47836;-73
2023/03/08 06:45:57;;;;;;;;;4.00;2.50;;;;;8.99;89.09;98716.97;5137305;27;45194;-74
2023/03/08 06:48:23;;;;;;;;;3.00;3.00;;;;;9.29;88.78;98748.66;5137384;27;45327;-76
2023/03/08 06:50:49;;;;;;;;;1.75;1.75;;;;;9.39;89.14;98746.16;5137629;27;45347;-76
2023/03/08 06:53:15;;;;;;;;;1.00;1.00;;;;;9.39;89.45;98730.97;5137354;27;45471;-79
2023/03/08 06:55:41;;;;;;;;;1.25;1.25;;;;;9.44;89.75;98734.16;5137545;27;45219;-75
2023/03/08 06:58:07;;;;;;;;;1.25;1.00;;;;;9.31;90.16;98698.59;5136261;27;45308;-74
2023/03/08 07:00:33;;;;;;;;;2.00;2.00;;;;;9.65;90.26;98736.22;5114797;27;46173;-76
2023/03/08 07:02:58;;;;;;;;;1.00;1.00;;;;;9.74;89.64;98739.09;5136911;27;45424;-78
2023/03/08 07:05:24;;;;;;;;;2.00;2.00;;;;;9.81;89.54;98747.50;5136678;27;45369;-76
2023/03/08 07:07:50;;;;;;;;;1.00;1.00;;;;;9.90;89.32;98733.44;5116790;27;45408;-77
2023/03/08 07:10:19;;;;;;;;;2.50;1.00;;;;;9.95;89.31;98723.25;5115036;27;47017;-76
2023/03/08 07:12:47;;;;;;;;;1.00;1.00;;;;;10.03;89.11;98739.59;5135610;27;45264;-78
2023/03/08 07:15:14;;;;;;;;;0.50;0.00;;;;;10.15;88.94;98730.59;5137165;27;45360;-77
2023/03/08 07:17:41;;;;;;;;;0.75;0.75;;;;;10.13;88.80;98735.22;5137084;27;45384;-75
2023/03/08 07:20:08;;;;;;;;;2.00;2.00;;;;;10.33;88.79;98760.53;5137116;27;45318;-76
2023/03/08 07:22:33;;;;;;;;;2.00;0.00;;;;;10.25;89.33;98738.84;5136997;27;45893;-77
2023/03/08 07:24:58;;;;;;;;;1.25;1.25;;;;;10.34;89.23;98724.75;5137311;27;45353;-76
2023/03/08 07:27:25;;;;;;;;;0.00;0.00;;;;;10.50;88.77;98727.94;5137037;27;45346;-77
2023/03/08 07:29:50;;;;;;;;;1.00;1.00;;;;;10.53;88.65;98729.53;5118764;27;45343;-77
2023/03/08 07:32:16;;;;;;;;;1.00;1.00;;;;;10.64;88.53;98734.88;5136612;27;45946;-77
2023/03/08 07:34:41;;;;;;;;;0.75;0.75;;;;;10.61;89.07;98727.09;5136702;27;45261;-77
2023/03/08 07:37:11;;;;;;;;;0.00;0.00;;;;;10.73;88.81;98728.81;5136842;27;45291;-78
2023/03/08 07:39:37;;;;;;;;;0.25;0.25;;;;;10.80;88.48;98747.97;5136757;27;45231;-77
2023/03/08 07:42:03;;;;;;;;;1.00;1.00;;;;;10.83;88.94;98734.31;5136562;27;46097;-75
2023/03/08 07:44:28;;;;;;;;;0.75;0.75;;;;;10.84;88.83;98744.91;5136666;27;45443;-75
2023/03/08 07:46:53;;;;;;;;;1.00;0.50;;;;;10.97;88.30;98745.63;5138291;27;45426;-80
2023/03/08 07:49:18;;;;;;;;;1.50;1.00;;;;;11.03;88.24;98746.13;5137756;27;45350;-76
2023/03/08 07:51:47;;;;;;;;;2.00;0.00;;;;;11.09;88.23;98759.91;5137784;27;51426;-76
2023/03/08 07:54:12;;;;;;;;;2.25;0.00;;;;;11.13;87.80;98726.53;5139588;27;45341;-79
2023/03/08 07:56:38;;;;;;;;;0.50;0.50;;;;;11.16;87.70;98738.81;5138044;27;45431;-79
2023/03/08 07:59:04;;;;;;;;;0.75;0.75;;;;;10.97;87.60;98697.38;5137212;27;45539;-78
2023/03/08 08:01:31;;;;;;;;;1.50;0.00;;;;;11.24;87.63;98731.00;5135263;27;45686;-78
2023/03/08 08:03:58;;;;;;;;;1.00;1.00;;;;;11.34;87.22;98751.59;5138424;27;45631;-78
2023/03/08 08:06:24;;;;;;;;;1.50;0.25;;;;;11.40;86.83;98752.09;5115863;27;45215;-77
2023/03/08 08:08:49;;;;;;;;;2.00;1.25;;;;;11.58;86.67;98766.69;5115773;27;45431;-75
2023/03/08 08:11:18;;;;;;;;;1.00;1.00;;;;;11.63;85.88;98767.19;5115811;27;45615;-77
2023/03/08 08:13:45;;;;;;;;;1.75;1.75;;;;;11.80;85.40;98777.41;5115628;27;45349;-74
2023/03/08 08:16:12;;;;;;;;;1.00;1.00;;;;;11.82;85.46;98783.53;5116139;27;45290;-77
2023/03/08 08:18:37;;;;;;;;;0.25;0.25;;;;;11.91;85.31;98773.84;5115562;27;45549;-75
2023/03/08 08:21:06;;;;;;;;;1.00;1.00;;;;;11.99;85.00;98769.53;5115512;27;46003;-78
2023/03/08 08:23:32;;;;;;;;;1.00;1.00;;;;;12.03;85.05;98795.16;5115820;27;45466;-75
2023/03/08 08:25:57;;;;;;;;;0.00;0.00;;;;;12.13;84.13;98777.31;5116155;27;45304;-77
2023/03/08 08:28:24;;;;;;;;;1.00;1.00;;;;;12.18;84.24;98773.38;5115542;27;45515;-78
2023/03/08 08:31:11;;;;;;;;;0.00;0.00;;;;;12.23;83.22;98777.41;5115644;27;46412;-77
2023/03/08 08:33:37;;;;;;;;;1.00;1.00;;;;;12.18;83.24;98765.31;5119431;27;45345;-78
2023/03/08 08:36:05;;;;;;;;;0.00;0.00;;;;;12.34;83.30;98773.78;5119752;27;45249;-77
2023/03/08 08:38:31;;;;;;;;;0.00;0.00;;;;;12.24;83.10;98749.56;5119392;27;45545;-78
2023/03/08 08:41:00;;;;;;;;;0.75;0.75;;;;;12.30;82.50;98761.59;5119021;27;45343;-77
2023/03/08 08:43:26;;;;;;;;;2.50;1.00;;;;;12.58;82.52;98787.00;5119032;27;45444;-75
2023/03/08 08:45:54;;;;;;;;;3.50;1.75;;;;;12.65;82.94;98798.94;5118983;27;45588;-76
2023/03/08 08:48:20;;;;;;;;;1.25;1.25;;;;;12.64;83.13;98792.69;5118596;27;45214;-75
2023/03/08 08:50:45;;;;;;;;;0.25;0.25;;;;;12.49;83.90;98762.63;5118691;27;45742;-76
2023/03/08 08:53:11;;;;;;;;;1.00;1.00;;;;;12.60;83.55;98768.88;5118854;27;45266;-77
2023/03/08 08:55:39;;;;;;;;;0.00;0.00;;;;;12.59;84.12;98770.72;5143195;27;45366;-77
2023/03/08 08:58:05;;;;;;;;;5.50;1.00;;;;;12.78;85.01;98802.25;5121997;27;47121;-76
2023/03/08 09:00:32;;;;;;;;;1.25;1.25;;;;;12.92;84.24;98798.41;5138921;27;45502;-77
2023/03/08 09:02:58;;;;;;;;;1.25;1.25;;;;;12.91;84.02;98808.31;5139100;27;45348;-78
2023/03/08 09:05:24;;;;;;;;;3.50;2.00;;;;;12.78;84.64;98791.50;5138986;27;45323;-78
2023/03/08 09:07:53;;;;;;;;;1.00;1.00;;;;;12.71;84.18;98772.38;5138701;27;45265;-78
2023/03/08 09:10:18;;;;;;;;;1.25;1.25;;;;;12.97;83.74;98782.72;5139117;27;46330;-76
2023/03/08 09:12:43;;;;;;;;;1.00;1.00;;;;;12.91;83.51;98792.16;5132908;27;46498;-76
2023/03/08 09:15:10;;;;;;;;;2.25;1.75;;;;;13.05;83.37;98799.88;5118041;27;45667;-78
2023/03/08 09:17:37;;;;;;;;;1.25;1.25;;;;;13.05;82.91;98782.88;5099503;27;45385;-77
2023/03/08 09:20:05;;;;;;;;;2.00;0.75;;;;;13.12;82.40;98784.06;5117974;27;46284;-77
2023/03/08 09:22:30;;;;;;;;;2.25;1.75;;;;;13.21;82.30;98783.28;5117979;27;45355;-77
2023/03/08 09:24:56;;;;;;;;;3.00;2.00;;;;;13.05;81.84;98756.00;5121117;27;45461;-77
2023/03/08 09:27:21;;;;;;;;;1.75;1.00;;;;;13.23;81.83;98794.78;5138487;27;45327;-75
2023/03/08 09:29:46;;;;;;;;;1.00;1.00;;;;;13.11;81.88;98785.88;5138587;27;45715;-78
2023/03/08 09:32:12;;;;;;;;;1.50;1.00;;;;;13.27;81.79;98810.50;5132800;27;45388;-76
2023/03/08 09:34:37;;;;;;;;;1.00;1.00;;;;;13.24;81.36;98781.19;5118010;27;45505;-75
2023/03/08 09:37:04;;;;;;;;;0.00;0.00;;;;;13.30;81.90;98798.63;5117916;27;45927;-77
2023/03/08 09:39:29;;;;;;;;;0.25;0.25;;;;;13.46;81.42;98803.50;5118124;27;45981;-78
2023/03/08 09:41:58;;;;;;;;;2.75;1.00;;;;;13.48;80.81;98791.63;5118191;27;45446;-78
2023/03/08 09:44:50;;;;;;;;;1.00;1.00;;;;;13.57;80.33;98806.09;5116818;27;45461;-75
2023/03/08 09:48:11;;;;;;;;;0.00;0.00;;;;;13.70;80.29;98795.06;5108374;27;45425;-77
2023/03/08 09:50:46;;;;;;;;;1.00;1.00;;;;;13.64;80.00;98802.72;5053095;28;45537;-77
2023/03/08 09:53:19;;;;;;;;;1.50;1.00;;;;;13.80;79.56;98809.44;5054430;28;46130;-77
2023/03/08 09:55:50;;;;;;;;;2.00;2.00;;;;;13.95;79.02;98811.59;5053339;28;45577;-79
2023/03/08 09:58:33;;;;;;;;;3.00;1.75;;;;;13.98;78.50;98819.41;5047698;28;45489;-77
2023/03/08 10:01:15;;;;;;;;;1.00;1.00;;;;;14.12;78.48;98814.63;5050623;27;46105;-79
2023/03/08 10:03:59;;;;;;;;;0.25;0.25;;;;;14.29;77.31;98820.13;5138757;27;45266;-77
2023/03/08 10:06:40;;;;;;;;;2.50;2.00;;;;;14.35;76.95;98824.13;5138604;27;45422;-77
2023/03/08 10:09:40;;;;;;;;;0.00;0.00;;;;;14.40;76.51;98821.88;5139210;27;45316;-78
2023/03/08 10:12:17;;;;;;;;;1.00;1.00;;;;;14.54;75.48;98840.38;5119939;27;45532;-77
2023/03/08 10:15:00;;;;;;;;;0.75;0.75;;;;;14.55;75.01;98836.66;5138538;27;45303;-79
2023/03/08 10:17:49;;;;;;;;;1.00;1.00;;;;;14.73;75.29;98842.19;5139604;27;45272;-78
2023/03/08 10:20:30;;;;;;;;;1.00;1.00;;;;;14.73;74.30;98834.94;5119465;27;46213;-78
2023/03/08 10:23:05;;;;;;;;;1.00;1.00;;;;;14.86;74.28;98831.09;5138320;27;45538;-77
2023/03/08 10:25:33;;;;;;;;;2.00;0.00;;;;;14.97;73.74;98836.34;5138428;27;45336;-77
2023/03/08 10:28:02;;;;;;;;;1.00;1.00;;;;;14.82;73.33;98808.09;5138319;27;45470;-77
2023/03/08 10:30:45;;;;;;;;;1.00;0.00;;;;;14.96;73.82;98827.41;5119105;27;47506;-79
2023/03/08 10:33:14;;;;;;;;;0.00;0.00;;;;;14.98;73.21;98838.03;5138046;27;45529;-76
2023/03/08 10:36:15;;;;;;;;;0.25;0.25;;;;;14.75;73.61;98829.41;5138195;27;45289;-77
2023/03/08 10:38:41;;;;;;;;;0.00;0.00;;;;;14.85;74.03;98842.91;5138111;27;45487;-77
2023/03/08 10:41:12;;;;;;;;;1.00;1.00;;;;;14.80;74.27;98858.66;5138153;27;45520;-77
2023/03/08 10:43:56;;;;;;;;;0.00;0.00;;;;;14.78;75.30;98853.41;5138106;27;46555;-77
2023/03/08 10:46:32;;;;;;;;;0.00;0.00;;;;;14.86;74.61;98855.38;5137458;27;45571;-77
2023/03/08 10:49:13;;;;;;;;;0.00;0.00;;;;;14.81;75.03;98869.28;5137882;27;45458;-78
2023/03/08 10:51:39;;;;;;;;;2.00;0.00;;;;;14.88;75.32;98861.50;5137661;27;45486;-78
2023/03/08 10:54:06;;;;;;;;;1.00;1.00;;;;;14.73;75.11;98844.88;5137581;27;45313;-78
2023/03/08 10:56:36;;;;;;;;;0.00;0.00;;;;;14.79;74.99;98856.97;5137232;27;45677;-78
2023/03/08 10:59:04;;;;;;;;;1.75;1.75;;;;;14.84;75.17;98868.16;5119697;27;45375;-77
2023/03/08 11:01:32;;;;;;;;;1.75;1.00;;;;;14.94;74.71;98869.00;5137259;27;45321;-77
2023/03/08 11:04:00;;;;;;;;;0.00;0.00;;;;;14.96;74.30;98850.84;5137505;27;46582;-80
2023/03/08 11:06:25;;;;;;;;;0.00;0.00;;;;;14.82;73.58;98802.69;5137955;27;45432;-79
2023/03/08 11:08:53;;;;;;;;;2.00;1.00;;;;;15.29;73.05;98857.59;5118784;27;45493;-78
2023/03/08 11:11:20;;;;;;;;;1.00;1.00;;;;;15.35;72.98;98855.16;5137656;27;45313;-77
2023/03/08 11:13:48;;;;;;;;;1.00;1.00;;;;;15.50;72.50;98869.03;5118623;27;45314;-77
2023/03/08 11:16:48;;;;;;;;;2.00;2.00;;;;;15.64;72.51;98862.34;5137270;27;46046;-76
2023/03/08 11:19:31;;;;;;;;;0.00;0.00;;;;;15.63;71.60;98864.19;5137398;27;45537;-78
2023/03/08 11:22:11;;;;;;;;;1.00;1.00;;;;;15.74;71.26;98858.59;5137648;27;45498;-77
2023/03/08 11:24:56;;;;;;;;;1.00;1.00;;;;;15.78;71.37;98853.75;5137458;27;46150;-78
2023/03/08 11:27:36;;;;;;;;;0.00;0.00;;;;;15.79;71.05;98850.06;5115824;27;46018;-77
2023/03/08 11:30:01;;;;;;;;;2.25;0.75;;;;;15.84;71.03;98856.69;5111667;27;45522;-76
2023/03/08 11:32:40;;;;;;;;;1.00;1.00;;;;;15.94;71.24;98855.81;5137109;27;45167;-77
2023/03/08 11:35:28;;;;;;;;;2.00;0.75;;;;;16.05;70.74;98866.41;5117754;27;46463;-76
2023/03/08 11:38:16;;;;;;;;;0.00;0.00;;;;;16.19;70.11;98866.75;5137319;27;45391;-79
2023/03/08 11:40:47;;;;;;;;;0.00;0.00;;;;;16.26;69.58;98875.09;5136945;27;45362;-77
2023/03/08 11:43:39;;;;;;;;;1.00;1.00;;;;;16.19;69.63;98864.03;5136840;27;45375;-76
2023/03/08 11:46:31;;;;;;;;;0.00;0.00;;;;;16.20;70.04;98876.56;5136635;27;45487;-78
2023/03/08 11:48:59;;;;;;;;;0.00;0.00;;;;;16.23;69.94;98870.88;5138491;27;45309;-78
2023/03/08 11:52:05;;;;;;;;;0.00;0.00;;;;;16.10;69.35;98870.34;5137772;27;45255;-75
2023/03/08 11:54:36;;;;;;;;;0.75;0.75;;;;;15.93;70.71;98878.41;5082205;27;45968;-77
2023/03/08 11:57:09;;;;;;;;;0.75;0.00;;;;;15.87;72.13;98874.47;5136091;27;46213;-76
2023/03/08 11:59:34;;;;;;;;;0.00;0.00;;;;;15.66;74.00;98868.44;5133352;27;45404;-76
2023/03/08 12:02:12;;;;;;;;;0.75;0.75;;;;;15.60;75.39;98867.19;5134093;27;45426;-76
2023/03/08 12:05:00;;;;;;;;;0.75;0.00;;;;;15.25;76.35;98861.56;5132068;27;45977;-76
2023/03/08 12:07:37;;;;;;;;;0.00;0.00;;;;;15.18;76.65;98872.09;5115121;27;46001;-76
2023/03/08 12:10:11;;;;;;;;;1.00;0.00;;;;;15.09;77.34;98862.16;5113779;27;45340;-77
2023/03/08 12:12:55;;;;;;;;;0.00;0.00;;;;;15.11;76.83;98852.94;5133627;27;45488;-75
2023/03/08 12:15:36;;;;;;;;;0.00;0.00;;;;;15.16;76.98;98857.88;5131358;27;45470;-77
2023/03/08 12:18:12;;;;;;;;;2.00;0.00;;;;;15.18;77.54;98876.66;5126960;27;46765;-76
2023/03/08 12:20:41;;;;;;;;;1.00;1.00;;;;;15.18;76.27;98841.56;5133952;27;45257;-79
2023/03/08 12:23:31;;;;;;;;;0.25;0.25;;;;;15.51;74.73;98847.28;5118246;27;45196;-79
2023/03/08 12:26:12;;;;;;;;;1.50;0.75;;;;;16.13;74.05;98834.06;5123125;27;45359;-77
2023/03/08 12:28:45;;;;;;;;;1.00;1.00;;;;;16.25;71.01;98836.38;5136435;27;45420;-81
2023/03/08 12:31:25;;;;;;;;;0.75;0.75;;;;;16.42;69.35;98825.75;5137102;27;45337;-81
2023/03/08 12:33:52;;;;;;;;;0.75;0.75;;;;;16.66;68.64;98826.03;5136902;27;45456;-78
2023/03/08 12:36:21;;;;;;;;;1.50;1.25;;;;;16.54;66.74;98798.31;5114288;27;45353;-83
2023/03/08 12:38:54;;;;;;;;;2.00;1.00;;;;;16.83;66.16;98821.59;5117746;27;47155;-78
2023/03/08 12:41:25;;;;;;;;;0.00;0.00;;;;;16.79;66.26;98818.34;5136332;27;45374;-79
2023/03/08 12:44:24;;;;;;;;;2.00;0.00;;;;;16.77;64.80;98819.50;5118354;27;45456;-80
2023/03/08 12:46:53;;;;;;;;;0.75;0.75;;;;;16.27;64.61;98777.59;5094274;27;45604;-78
2023/03/08 12:49:26;;;;;;;;;0.00;0.00;;;;;16.40;65.42;98820.50;5136893;27;46357;-81
2023/03/08 12:52:16;;;;;;;;;1.00;1.00;;;;;16.30;66.55;98825.13;5137502;27;45523;-82
2023/03/08 12:54:41;;;;;;;;;1.00;0.00;;;;;16.05;67.41;98780.78;5137858;27;45378;-80
2023/03/08 12:57:19;;;;;;;;;1.00;1.00;;;;;16.36;67.15;98810.13;5138408;27;45361;-81
2023/03/08 12:59:45;;;;;;;;;0.00;0.00;;;;;16.48;66.72;98807.06;5120445;27;47202;-81
2023/03/08 13:02:24;;;;;;;;;1.00;0.00;;;;;16.61;66.63;98791.31;5138316;27;45482;-78
2023/03/08 13:05:23;;;;;;;;;1.00;1.00;;;;;16.75;65.04;98802.59;5139828;27;45276;-80
2023/03/08 13:07:57;;;;;;;;;1.00;0.00;;;;;16.81;64.26;98793.84;5132329;27;45237;-75
2023/03/08 13:10:57;;;;;;;;;1.00;0.00;;;;;16.83;64.39;98784.56;5127786;27;46142;-74
2023/03/08 13:13:32;;;;;;;;;0.00;0.00;;;;;16.79;64.15;98802.09;5134595;27;45573;-76
2023/03/08 13:16:13;;;;;;;;;0.00;0.00;;;;;16.61;64.85;98790.47;5134532;27;45380;-74
2023/03/08 13:18:43;;;;;;;;;1.00;0.75;;;;;16.52;65.53;98802.19;5118617;27;47292;-76
2023/03/08 13:21:21;;;;;;;;;1.00;0.25;;;;;16.31;66.51;98788.13;5138509;27;45533;-75
2023/03/08 13:23:59;;;;;;;;;0.25;0.25;;;;;16.24;68.18;98783.34;5138212;27;45341;-75
2023/03/08 13:26:54;;;;;;;;;0.75;0.75;;;;;15.97;69.75;98796.91;5138966;27;45513;-73
2023/03/08 13:29:20;;;;;;;;;1.00;1.00;;;;;15.79;70.34;98787.91;5126594;27;45613;-75
2023/03/08 13:31:47;;;;;;;;;1.00;1.00;;;;;15.46;71.26;98762.31;5138371;27;45205;-75
2023/03/08 13:34:25;;;;;;;;;0.25;0.25;;;;;15.58;72.47;98798.09;5138969;27;45425;-77
2023/03/08 13:36:51;;;;;;;;;0.25;0.25;;;;;15.36;73.06;98780.41;5138838;27;45574;-75
2023/03/08 13:39:25;;;;;;;;;1.00;1.00;;;;;15.40;73.61;98792.59;5138519;27;46108;-76
2023/03/08 13:41:51;;;;;;;;;2.00;0.00;;;;;15.29;73.19;98777.44;5138768;27;46163;-75
2023/03/08 13:44:26;;;;;;;;;1.00;1.00;;;;;15.39;73.40;98774.72;5138615;27;45402;-75
2023/03/08 13:46:56;;;;;;;;;1.00;1.00;;;;;15.24;73.52;98758.13;5138934;27;45344;-74
2023/03/08 13:49:21;;;;;;;;;1.00;1.00;;;;;15.42;73.83;98761.75;5138436;27;45541;-74
2023/03/08 13:51:51;;;;;;;;;1.00;1.00;;;;;15.41;73.96;98759.19;5119796;27;47173;-75
2023/03/08 13:54:47;;;;;;;;;1.00;1.00;;;;;15.31;74.99;98767.34;5138708;27;45424;-76
2023/03/08 13:57:22;;;;;;;;;3.00;1.00;;;;;15.32;75.87;98763.63;5133048;27;45541;-76
2023/03/08 13:59:50;;;;;;;;;0.00;0.00;;;;;15.21;76.51;98760.28;5122834;27;45215;-74
2023/03/08 14:02:24;;;;;;;;;0.00;0.00;;;;;15.16;76.87;98758.03;5138721;27;45283;-76
2023/03/08 14:04:50;;;;;;;;;1.25;1.25;;;;;15.18;76.99;98750.63;5138650;27;45241;-74
2023/03/08 14:07:24;;;;;;;;;1.00;1.00;;;;;15.13;76.49;98732.19;5138574;27;45345;-77
2023/03/08 14:09:49;;;;;;;;;2.00;0.50;;;;;15.20;76.84;98745.09;5138560;27;45312;-75
2023/03/08 14:12:19;;;;;;;;;1.00;1.00;;;;;14.98;77.57;98733.66;5138201;27;46065;-75
2023/03/08 14:14:50;;;;;;;;;2.00;1.00;;;;;15.06;76.97;98733.75;5138408;27;45491;-77
2023/03/08 14:17:22;;;;;;;;;0.00;0.00;;;;;15.04;77.47;98745.72;5138536;27;45499;-75
2023/03/08 14:19:53;;;;;;;;;0.25;0.25;;;;;14.99;78.21;98738.06;5138308;27;45284;-75
2023/03/08 14:22:20;;;;;;;;;1.00;1.00;;;;;14.92;77.90;98750.44;5138058;27;46352;-76
2023/03/08 14:24:57;;;;;;;;;1.00;1.00;;;;;14.88;78.39;98742.78;5138356;27;45278;-74
2023/03/08 14:27:44;;;;;;;;;1.25;1.00;;;;;14.90;77.88;98741.63;5138200;27;45195;-76
2023/03/08 14:30:11;;;;;;;;;0.75;0.75;;;;;14.81;79.13;98745.19;5137436;27;45699;-76
2023/03/08 14:32:37;;;;;;;;;3.50;1.00;;;;;14.82;79.39;98759.53;5137774;27;45330;-75
2023/03/08 14:35:24;;;;;;;;;0.00;0.00;;;;;14.76;79.95;98766.38;5137950;27;45375;-75
2023/03/08 14:37:54;;;;;;;;;1.25;1.25;;;;;14.76;80.23;98766.38;5138362;27;45279;-75
2023/03/08 14:40:20;;;;;;;;;1.25;1.00;;;;;14.83;80.23;98766.63;5137768;27;45432;-76
2023/03/08 14:42:48;;;;;;;;;3.25;1.25;;;;;14.77;79.96;98751.91;5119054;27;46413;-76
2023/03/08 14:45:34;;;;;;;;;1.00;1.00;;;;;14.80;80.85;98761.56;5137555;27;45484;-75
2023/03/08 14:48:15;;;;;;;;;1.25;1.25;;;;;14.61;81.00;98722.84;5137768;27;45544;-75
2023/03/08 14:50:52;;;;;;;;;2.00;2.00;;;;;14.78;81.45;98761.69;5137633;27;45414;-75
2023/03/08 14:53:54;;;;;;;;;1.25;1.25;;;;;14.64;81.59;98759.44;5137456;27;45297;-76
2023/03/08 14:56:20;;;;;;;;;3.00;2.00;;;;;14.51;82.59;98766.97;5137424;27;45268;-75
2023/03/08 14:58:48;;;;;;;;;4.00;1.50;;;;;14.37;82.55;98752.06;5125763;27;48081;-76
2023/03/08 15:01:27;;;;;;;;;3.00;1.00;;;;;14.49;81.79;98771.66;5132293;27;45399;-76
2023/03/08 15:03:52;;;;;;;;;2.00;1.00;;;;;14.36;88.03;98769.25;5137528;27;46105;-75
2023/03/08 15:06:25;;;;;;;;;0.00;0.00;;;;;14.23;84.43;98763.25;5137518;27;45188;-75
2023/03/08 15:08:51;;;;;;;;;1.50;0.75;;;;;14.16;85.46;98752.19;5137808;27;45401;-79
2023/03/08 15:11:16;;;;;;;;;2.00;2.00;;;;;14.11;85.83;98743.69;5118814;27;45477;-76
2023/03/08 15:13:43;;;;;;;;;1.00;1.00;;;;;14.05;85.38;98738.00;5137372;27;45492;-75
2023/03/08 15:16:09;;;;;;;;;1.00;1.00;;;;;14.10;84.97;98725.81;5116634;27;45327;-74
2023/03/08 15:18:34;;;;;;;;;1.00;1.00;;;;;14.08;84.84;98721.56;5116594;27;45295;-76
2023/03/08 15:21:00;;;;;;;;;0.00;0.00;;;;;14.18;84.47;98727.81;5116415;27;45574;-74
2023/03/08 15:23:29;;;;;;;;;1.00;1.00;;;;;14.27;83.24;98713.47;5116401;27;45406;-76
2023/03/08 15:25:55;;;;;;;;;1.00;1.00;;;;;14.23;82.88;98712.06;5105796;27;45511;-75
2023/03/08 15:28:22;;;;;;;;;1.50;1.00;;;;;14.22;82.94;98711.19;5137135;27;45455;-75
2023/03/08 15:30:51;;;;;;;;;0.00;0.00;;;;;14.17;82.99;98708.09;5136666;27;45393;-75
2023/03/08 15:33:16;;;;;;;;;3.25;0.00;;;;;14.27;82.97;98727.81;5136775;27;46023;-76
2023/03/08 15:35:42;;;;;;;;;0.00;0.00;;;;;14.26;82.00;98730.66;5137369;27;45369;-74
2023/03/08 15:38:12;;;;;;;;;0.00;0.00;;;;;14.35;82.49;98749.50;5137484;27;45470;-75
2023/03/08 15:40:37;;;;;;;;;1.50;0.00;;;;;14.49;81.45;98734.75;5136905;27;45333;-76
2023/03/08 15:43:03;;;;;;;;;0.00;0.00;;;;;14.62;81.48;98739.88;5136052;27;45429;-76
2023/03/08 15:45:28;;;;;;;;;1.50;0.00;;;;;14.64;81.50;98733.31;5136943;27;45471;-78
2023/03/08 15:47:55;;;;;;;;;0.75;0.75;;;;;14.74;80.90;98755.72;5137218;27;45513;-75
2023/03/08 15:50:20;;;;;;;;;0.00;0.00;;;;;14.82;80.55;98752.31;5136915;27;45179;-75
2023/03/08 15:52:46;;;;;;;;;0.00;0.00;;;;;14.76;79.44;98748.34;5136835;27;45427;-76
2023/03/08 15:55:12;;;;;;;;;0.00;0.00;;;;;14.64;79.66;98729.75;5136860;27;54979;-74
2023/03/08 15:57:39;;;;;;;;;1.00;1.00;;;;;14.64;79.43;98751.34;5136012;27;45842;-75
2023/03/08 16:00:10;;;;;;;;;0.00;0.00;;;;;14.73;79.25;98756.72;5121960;27;45502;-74
2023/03/08 16:02:36;;;;;;;;;0.00;0.00;;;;;14.79;78.94;98759.84;5136469;27;46893;-73
2023/03/08 16:05:04;;;;;;;;;0.00;0.00;;;;;14.64;78.28;98724.38;5136663;27;45242;-76
2023/03/08 16:07:29;;;;;;;;;0.00;0.00;;;;;14.67;78.15;98757.31;5117994;27;45440;-76
2023/03/08 16:09:55;;;;;;;;;0.00;0.00;;;;;14.72;78.19;98759.56;5136605;27;45455;-74
2023/03/08 16:12:20;;;;;;;;;0.00;0.00;;;;;14.46;78.05;98732.34;5136272;27;45336;-76
2023/03/08 16:14:48;;;;;;;;;0.75;0.75;;;;;14.65;77.72;98769.22;5136488;27;45477;-75
2023/03/08 16:17:14;;;;;;;;;0.00;0.00;;;;;14.59;77.60;98765.28;5136526;27;45477;-74
2023/03/08 16:19:40;;;;;;;;;2.00;0.00;;;;;14.45;78.11;98776.50;5136498;27;45339;-77
2023/03/08 16:22:05;;;;;;;;;0.00;0.00;;;;;14.48;77.54;98773.50;5136261;27;45229;-75
2023/03/08 16:24:30;;;;;;;;;0.00;0.00;;;;;14.42;77.89;98773.22;5136365;27;45232;-75
2023/03/08 16:26:56;;;;;;;;;2.00;0.50;;;;;14.45;78.47;98789.97;5136502;27;45653;-76
2023/03/08 16:29:22;;;;;;;;;1.00;0.25;;;;;14.45;78.27;98787.28;5135154;27;45674;-75
2023/03/08 16:31:48;;;;;;;;;1.25;0.00;;;;;14.39;78.54;98780.59;5134639;27;45931;-72
2023/03/08 16:34:14;;;;;;;;;1.00;1.00;;;;;14.33;79.44;98780.28;5131431;27;45640;-71
2023/03/08 16:36:39;;;;;;;;;0.25;0.25;;;;;14.34;79.92;98796.31;5131942;27;45311;-73
2023/03/08 16:39:06;;;;;;;;;1.75;1.00;;;;;14.36;81.20;98818.63;5125895;27;45366;-73
2023/03/08 16:41:36;;;;;;;;;1.00;1.00;;;;;14.30;81.94;98799.44;5115022;27;46181;-74
2023/03/08 16:44:01;;;;;;;;;5.00;1.00;;;;;13.81;89.76;98809.28;5115075;27;45371;-75
2023/03/08 16:46:27;;;;;;;;;0.00;0.00;;;;;13.66;94.03;98786.44;5115507;27;45320;-75
2023/03/08 16:48:54;;;;;;;;;1.25;1.00;;;;;13.55;93.90;98776.63;5115165;27;45420;-73
2023/03/08 16:51:23;;;;;;;;;1.25;1.25;;;;;13.49;92.93;98765.56;5115009;27;46118;-74
2023/03/08 16:53:49;;;;;;;;;3.00;1.75;;;;;13.51;93.77;98777.91;5117681;27;45459;-74
2023/03/08 16:56:19;;;;;;;;;3.00;3.00;;;;;13.45;93.06;98758.72;5118987;27;45482;-74
2023/03/08 16:58:45;;;;;;;;;0.00;0.00;;;;;13.43;90.18;98776.88;5128962;27;45469;-75
2023/03/08 17:01:16;;;;;;;;;0.00;0.00;;;;;13.33;86.84;98759.84;5118274;27;46681;-74
2023/03/08 17:03:42;;;;;;;;;0.00;0.00;;;;;13.13;88.56;98786.66;5130334;27;45224;-75
2023/03/08 17:06:12;;;;;;;;;1.00;1.00;;;;;13.07;88.06;98767.47;5139444;27;45351;-75
2023/03/08 17:08:38;;;;;;;;;0.00;0.00;;;;;13.13;84.82;98775.88;5139737;27;45499;-75
2023/03/08 17:11:04;;;;;;;;;0.00;0.00;;;;;13.13;84.47;98786.66;5139174;27;45992;-75
2023/03/08 17:13:31;;;;;;;;;0.00;0.00;;;;;13.02;85.00;98777.78;5139632;27;45608;-74
2023/03/08 17:15:57;;;;;;;;;0.00;0.00;;;;;12.96;83.13;98759.47;5138805;27;45469;-76
2023/03/08 17:18:25;;;;;;;;;1.00;0.00;;;;;13.09;83.43;98758.28;5138877;27;45448;-77
2023/03/08 17:20:51;;;;;;;;;0.00;0.00;;;;;13.13;83.89;98754.38;5138858;27;45327;-75